createdAt,value
2017-07-03T00:00:42.061Z,99.99
2017-07-03T00:01:50.948Z,99.99
2017-07-03T00:03:00.163Z,99.99
2017-07-03T00:04:09.146Z,99.99
2017-07-03T00:05:18.039Z,99.99
2017-07-03T00:06:27.252Z,99.99
2017-07-03T00:07:36.143Z,99.99
2017-07-03T00:08:45.359Z,99.99
2017-07-03T00:09:55.199Z,99.99
2017-07-03T00:11:04.736Z,99.99
2017-07-03T00:12:13.626Z,99.99
2017-07-03T00:13:23.172Z,99.99
2017-07-03T00:14:32.715Z,99.99
2017-07-03T00:15:42.406Z,99.99
2017-07-03T00:16:51.672Z,99.99
2017-07-03T00:18:00.883Z,99.99
2017-07-03T00:19:09.777Z,99.99
2017-07-03T00:20:18.988Z,99.99
2017-07-03T00:21:28.499Z,99.99
2017-07-03T00:22:37.710Z,99.99
2017-07-03T00:23:46.924Z,99.99
2017-07-03T00:24:56.138Z,99.99
2017-07-03T00:26:05.680Z,99.99
2017-07-03T00:27:14.566Z,99.99
2017-07-03T00:28:24.107Z,99.99
2017-07-03T00:29:33.975Z,99.99
2017-07-03T00:30:42.861Z,99.99
2017-07-03T00:31:52.399Z,99.99
2017-07-03T00:33:01.812Z,99.99
2017-07-03T00:34:10.703Z,99.99
2017-07-03T00:35:19.916Z,99.99
2017-07-03T00:36:28.810Z,99.99
2017-07-03T00:37:38.024Z,99.99
2017-07-03T00:38:47.387Z,99.99
2017-07-03T00:39:56.926Z,99.99
2017-07-03T00:41:06.465Z,99.99
2017-07-03T00:42:15.349Z,99.99
2017-07-03T00:43:24.570Z,99.99
2017-07-03T00:44:34.484Z,99.99
2017-07-03T00:45:43.698Z,99.99
2017-07-03T00:46:52.910Z,99.99
2017-07-03T00:48:01.797Z,99.99
2017-07-03T00:49:11.007Z,99.99
2017-07-03T00:50:20.217Z,99.99
2017-07-03T00:51:30.102Z,99.99
2017-07-03T00:52:39.311Z,99.99
2017-07-03T00:53:48.197Z,99.99
2017-07-03T00:54:57.741Z,99.99
2017-07-03T00:56:06.952Z,99.99
2017-07-03T00:57:16.819Z,99.99
2017-07-03T00:58:25.717Z,99.99
2017-07-03T00:59:34.933Z,99.99
2017-07-03T01:00:43.817Z,99.99
2017-07-03T01:01:52.705Z,99.99
2017-07-03T01:03:02.239Z,99.99
2017-07-03T01:04:11.158Z,99.99
2017-07-03T01:05:20.705Z,99.99
2017-07-03T01:06:29.593Z,99.99
2017-07-03T01:07:38.957Z,99.99
2017-07-03T01:08:48.170Z,99.99
2017-07-03T01:09:57.384Z,99.99
2017-07-03T01:11:06.926Z,99.99
2017-07-03T01:12:15.817Z,99.99
2017-07-03T01:13:25.653Z,99.99
2017-07-03T01:14:34.870Z,99.99
2017-07-03T01:15:44.085Z,99.99
2017-07-03T01:16:53.296Z,99.99
2017-07-03T01:18:03.158Z,99.99
2017-07-03T01:19:13.444Z,99.99
2017-07-03T01:20:23.636Z,99.99
2017-07-03T01:21:32.850Z,99.99
2017-07-03T01:22:41.736Z,99.99
2017-07-03T01:23:50.950Z,99.99
2017-07-03T01:25:00.314Z,99.99
2017-07-03T01:26:09.533Z,99.99
2017-07-03T01:27:18.745Z,99.99
2017-07-03T01:28:27.634Z,99.99
2017-07-03T01:29:36.517Z,99.99
2017-07-03T01:30:46.373Z,99.99
2017-07-03T01:31:55.914Z,99.99
2017-07-03T01:33:04.805Z,99.99
2017-07-03T01:34:13.690Z,99.99
2017-07-03T01:35:22.909Z,99.99
2017-07-03T01:36:31.945Z,99.99
2017-07-03T01:37:41.157Z,99.99
2017-07-03T01:38:50.693Z,99.99
2017-07-03T01:40:00.552Z,99.99
2017-07-03T01:41:09.773Z,99.99
2017-07-03T01:42:19.614Z,99.99
2017-07-03T01:43:28.507Z,99.99
2017-07-03T01:44:38.041Z,99.99
2017-07-03T01:45:47.582Z,99.99
2017-07-03T01:46:56.795Z,99.99
2017-07-03T01:48:06.180Z,99.99
2017-07-03T01:49:15.399Z,99.99
2017-07-03T01:50:25.269Z,99.99
2017-07-03T01:51:35.143Z,99.99
2017-07-03T01:52:44.675Z,99.99
2017-07-03T01:53:54.362Z,99.99
2017-07-03T01:55:03.900Z,99.99
2017-07-03T01:56:13.108Z,99.99
2017-07-03T01:57:22.338Z,99.99
2017-07-03T01:58:31.546Z,99.99
2017-07-03T01:59:40.786Z,99.99
2017-07-03T02:00:50.001Z,99.99
2017-07-03T02:01:58.890Z,99.99
2017-07-03T02:03:07.776Z,99.99
2017-07-03T02:04:17.659Z,99.99
2017-07-03T02:05:27.772Z,99.99
2017-07-03T02:06:36.984Z,99.99
2017-07-03T02:07:45.871Z,99.99
2017-07-03T02:08:55.083Z,99.99
2017-07-03T02:10:04.297Z,99.99
2017-07-03T02:11:13.514Z,99.99
2017-07-03T02:12:22.725Z,99.99
2017-07-03T02:13:31.611Z,99.99
2017-07-03T02:14:41.471Z,99.99
2017-07-03T02:15:50.684Z,99.99
2017-07-03T02:17:00.542Z,99.99
2017-07-03T02:18:09.483Z,99.99
2017-07-03T02:19:18.692Z,99.99
2017-07-03T02:20:28.558Z,99.99
2017-07-03T02:21:37.441Z,99.99
2017-07-03T02:22:46.332Z,99.99
2017-07-03T02:23:55.218Z,99.99
2017-07-03T02:25:04.109Z,99.99
2017-07-03T02:26:12.995Z,99.99
2017-07-03T02:27:22.212Z,99.99
2017-07-03T02:28:32.373Z,99.99
2017-07-03T02:29:41.908Z,99.99
2017-07-03T02:30:51.450Z,99.99
2017-07-03T02:32:00.379Z,99.99
2017-07-03T02:33:09.268Z,99.99
2017-07-03T02:34:18.210Z,99.99
2017-07-03T02:35:27.754Z,99.99
2017-07-03T02:36:36.646Z,99.99
2017-07-03T02:37:45.853Z,99.99
2017-07-03T02:38:55.396Z,99.99
2017-07-03T02:40:04.760Z,99.99
2017-07-03T02:41:13.694Z,99.99
2017-07-03T02:42:22.585Z,99.99
2017-07-03T02:43:31.797Z,99.99
2017-07-03T02:44:40.684Z,99.99
2017-07-03T02:45:50.048Z,99.99
2017-07-03T02:46:59.581Z,99.99
2017-07-03T02:48:09.122Z,99.99
2017-07-03T02:49:18.333Z,99.99
2017-07-03T02:50:28.199Z,99.99
2017-07-03T02:51:37.242Z,99.99
2017-07-03T02:52:46.456Z,99.99
2017-07-03T02:53:55.670Z,99.99
2017-07-03T02:55:05.205Z,99.99
2017-07-03T02:56:14.414Z,99.99
2017-07-03T02:57:24.759Z,99.99
2017-07-03T02:58:34.294Z,99.99
2017-07-03T02:59:43.826Z,99.99
2017-07-03T03:00:52.729Z,99.99
2017-07-03T03:02:01.943Z,99.99
2017-07-03T03:03:11.082Z,99.99
2017-07-03T03:04:20.301Z,99.99
2017-07-03T03:05:30.159Z,99.99
2017-07-03T03:06:39.703Z,99.99
2017-07-03T03:07:48.914Z,99.99
2017-07-03T03:08:58.433Z,99.99
2017-07-03T03:10:07.646Z,99.99
2017-07-03T03:11:17.507Z,99.99
2017-07-03T03:12:26.393Z,99.99
2017-07-03T03:13:35.935Z,99.99
2017-07-03T03:14:45.907Z,99.99
2017-07-03T03:15:55.447Z,99.99
2017-07-03T03:17:04.654Z,99.99
2017-07-03T03:18:13.874Z,99.99
2017-07-03T03:19:23.412Z,99.99
2017-07-03T03:20:32.673Z,99.99
2017-07-03T03:21:41.557Z,99.99
2017-07-03T03:22:50.438Z,99.99
2017-07-03T03:23:59.323Z,99.99
2017-07-03T03:25:08.214Z,99.99
2017-07-03T03:26:17.255Z,99.99
2017-07-03T03:27:26.474Z,99.99
2017-07-03T03:28:36.011Z,99.99
2017-07-03T03:29:45.550Z,99.99
2017-07-03T03:30:54.758Z,99.99
2017-07-03T03:32:03.701Z,99.99
2017-07-03T03:33:12.584Z,99.99
2017-07-03T03:34:21.473Z,99.99
2017-07-03T03:35:30.703Z,99.99
2017-07-03T03:36:39.585Z,99.99
2017-07-03T03:37:48.945Z,99.99
2017-07-03T03:38:58.162Z,99.99
2017-07-03T03:40:07.050Z,99.99
2017-07-03T03:41:16.258Z,99.99
2017-07-03T03:42:25.477Z,99.99
2017-07-03T03:43:35.489Z,99.99
2017-07-03T03:44:44.707Z,99.99
2017-07-03T03:45:54.580Z,99.99
2017-07-03T03:47:04.125Z,99.99
2017-07-03T03:48:13.986Z,99.99
2017-07-03T03:49:23.273Z,99.99
2017-07-03T03:50:32.485Z,99.99
2017-07-03T03:51:42.025Z,99.99
2017-07-03T03:52:50.910Z,99.99
2017-07-03T03:54:00.126Z,99.99
2017-07-03T03:55:09.384Z,99.99
2017-07-03T03:56:18.594Z,99.99
2017-07-03T03:57:27.811Z,99.99
2017-07-03T03:58:37.028Z,99.99
2017-07-03T03:59:46.575Z,99.99
2017-07-03T04:00:56.264Z,99.99
2017-07-03T04:02:05.478Z,99.99
2017-07-03T04:03:14.688Z,99.99
2017-07-03T04:04:23.904Z,99.99
2017-07-03T04:05:33.114Z,99.99
2017-07-03T04:06:42.150Z,99.99
2017-07-03T04:07:51.363Z,99.99
2017-07-03T04:09:00.576Z,99.99
2017-07-03T04:10:10.511Z,99.99
2017-07-03T04:11:19.724Z,99.99
2017-07-03T04:12:28.861Z,99.99
2017-07-03T04:13:38.073Z,99.99
2017-07-03T04:14:46.967Z,99.99
2017-07-03T04:15:55.847Z,99.99
2017-07-03T04:17:05.063Z,99.99
2017-07-03T04:18:14.848Z,99.99
2017-07-03T04:19:24.060Z,99.99
2017-07-03T04:20:33.605Z,99.99
2017-07-03T04:21:42.496Z,99.99
2017-07-03T04:22:52.030Z,99.99
2017-07-03T04:24:01.712Z,99.99
2017-07-03T04:25:10.602Z,99.99
2017-07-03T04:26:19.813Z,99.99
2017-07-03T04:27:28.696Z,99.99
2017-07-03T04:28:37.905Z,99.99
2017-07-03T04:29:47.045Z,99.99
2017-07-03T04:30:56.580Z,99.99
2017-07-03T04:32:05.470Z,99.99
2017-07-03T04:33:14.359Z,99.99
2017-07-03T04:34:23.904Z,99.99
2017-07-03T04:35:33.117Z,99.99
2017-07-03T04:36:42.005Z,99.99
2017-07-03T04:37:50.896Z,99.99
2017-07-03T04:39:00.109Z,99.99
2017-07-03T04:40:09.333Z,99.99
2017-07-03T04:41:18.694Z,99.99
2017-07-03T04:42:27.584Z,99.99
2017-07-03T04:43:37.122Z,99.99
2017-07-03T04:44:46.337Z,99.99
2017-07-03T04:45:55.549Z,99.99
2017-07-03T04:47:04.580Z,99.99
2017-07-03T04:48:14.117Z,99.99
2017-07-03T04:49:23.658Z,99.99
2017-07-03T04:50:33.200Z,99.99
2017-07-03T04:51:42.413Z,99.99
2017-07-03T04:52:51.631Z,99.99
2017-07-03T04:54:01.493Z,99.99
2017-07-03T04:55:11.033Z,99.99
2017-07-03T04:56:19.930Z,99.99
2017-07-03T04:57:28.822Z,99.99
2017-07-03T04:58:37.855Z,99.99
2017-07-03T04:59:47.073Z,99.99
2017-07-03T05:00:55.962Z,99.99
2017-07-03T05:02:04.846Z,99.99
2017-07-03T05:03:13.735Z,99.99
2017-07-03T05:04:23.647Z,99.99
2017-07-03T05:05:33.189Z,99.99
2017-07-03T05:06:42.405Z,99.99
2017-07-03T05:07:51.624Z,99.99
2017-07-03T05:09:01.162Z,99.99
2017-07-03T05:10:11.080Z,99.99
2017-07-03T05:11:20.292Z,99.99
2017-07-03T05:12:29.176Z,99.99
2017-07-03T05:13:38.061Z,99.99
2017-07-03T05:14:47.605Z,99.99
2017-07-03T05:15:56.921Z,99.99
2017-07-03T05:17:06.781Z,99.99
2017-07-03T05:18:15.674Z,99.99
2017-07-03T05:19:25.213Z,99.99
2017-07-03T05:20:34.764Z,99.99
2017-07-03T05:21:44.282Z,99.99
2017-07-03T05:22:53.491Z,99.99
2017-07-03T05:24:02.702Z,99.99
2017-07-03T05:25:12.241Z,99.99
2017-07-03T05:26:21.136Z,99.99
2017-07-03T05:27:30.023Z,99.99
2017-07-03T05:28:39.285Z,99.99
2017-07-03T05:29:49.149Z,99.99
2017-07-03T05:30:58.039Z,99.99
2017-07-03T05:32:07.253Z,99.99
2017-07-03T05:33:16.340Z,99.99
2017-07-03T05:34:25.555Z,99.99
2017-07-03T05:35:35.429Z,99.99
2017-07-03T05:36:44.966Z,99.99
2017-07-03T05:37:54.180Z,99.99
2017-07-03T05:39:03.872Z,99.99
2017-07-03T05:40:12.760Z,99.99
2017-07-03T05:41:21.975Z,99.99
2017-07-03T05:42:30.864Z,99.99
2017-07-03T05:43:40.075Z,99.99
2017-07-03T05:44:48.966Z,99.99
2017-07-03T05:45:57.854Z,99.99
2017-07-03T05:47:06.752Z,99.99
2017-07-03T05:48:15.969Z,99.99
2017-07-03T05:49:25.190Z,99.99
2017-07-03T05:50:34.407Z,99.99
2017-07-03T05:51:43.634Z,99.99
2017-07-03T05:52:52.838Z,99.99
2017-07-03T05:54:02.052Z,99.99
2017-07-03T05:55:10.943Z,99.99
2017-07-03T05:56:20.902Z,99.99
2017-07-03T05:57:29.794Z,99.99
2017-07-03T05:58:39.986Z,99.99
2017-07-03T05:59:49.532Z,99.99
2017-07-03T06:00:59.070Z,99.99
2017-07-03T06:02:08.290Z,99.99
2017-07-03T06:03:17.184Z,99.99
2017-07-03T06:04:26.401Z,99.99
2017-07-03T06:05:36.315Z,99.99
2017-07-03T06:06:45.858Z,99.99
2017-07-03T06:07:54.905Z,99.99
2017-07-03T06:09:03.790Z,99.99
2017-07-03T06:10:13.006Z,99.99
2017-07-03T06:11:22.221Z,99.99
2017-07-03T06:12:31.111Z,99.99
2017-07-03T06:13:40.475Z,99.99
2017-07-03T06:14:50.026Z,99.99
2017-07-03T06:15:59.562Z,99.99
2017-07-03T06:17:09.103Z,99.99
2017-07-03T06:18:18.318Z,99.99
2017-07-03T06:19:28.078Z,99.99
2017-07-03T06:20:37.297Z,99.99
2017-07-03T06:21:46.520Z,99.99
2017-07-03T06:22:56.383Z,99.99
2017-07-03T06:24:05.274Z,99.99
2017-07-03T06:25:14.263Z,99.99
2017-07-03T06:26:23.802Z,99.99
2017-07-03T06:27:32.690Z,99.99
2017-07-03T06:28:42.231Z,99.99
2017-07-03T06:29:52.099Z,99.99
2017-07-03T06:31:02.270Z,99.99
2017-07-03T06:32:11.492Z,99.99
2017-07-03T06:33:20.382Z,99.99
2017-07-03T06:34:29.608Z,99.99
2017-07-03T06:35:38.507Z,99.99
2017-07-03T06:36:47.922Z,99.99
2017-07-03T06:37:57.134Z,99.99
2017-07-03T06:39:06.673Z,99.99
2017-07-03T06:40:16.546Z,99.99
2017-07-03T06:41:25.444Z,99.99
2017-07-03T06:42:34.597Z,99.99
2017-07-03T06:43:44.461Z,99.99
2017-07-03T06:44:53.679Z,99.99
2017-07-03T06:46:03.216Z,99.99
2017-07-03T06:47:12.436Z,99.99
2017-07-03T06:48:21.757Z,99.99
2017-07-03T06:49:31.296Z,99.99
2017-07-03T06:50:40.189Z,99.99
2017-07-03T06:51:49.078Z,99.99
2017-07-03T06:52:58.292Z,99.99
2017-07-03T06:54:08.137Z,99.99
2017-07-03T06:55:18.016Z,99.99
2017-07-03T06:56:27.880Z,99.99
2017-07-03T06:57:36.779Z,99.99
2017-07-03T06:58:45.670Z,99.99
2017-07-03T06:59:56.022Z,99.99
2017-07-03T07:01:05.238Z,99.99
2017-07-03T07:02:14.454Z,99.99
2017-07-03T07:03:23.673Z,99.99
2017-07-03T07:04:32.911Z,99.99
2017-07-03T07:05:42.278Z,99.99
2017-07-03T07:06:51.493Z,99.99
2017-07-03T07:08:00.711Z,99.99
2017-07-03T07:09:09.940Z,99.99
2017-07-03T07:10:19.156Z,99.99
2017-07-03T07:11:28.148Z,99.99
2017-07-03T07:12:37.039Z,99.99
2017-07-03T07:13:46.257Z,99.99
2017-07-03T07:14:55.859Z,99.99
2017-07-03T07:16:05.067Z,99.99
2017-07-03T07:17:14.383Z,99.99
2017-07-03T07:18:23.926Z,99.99
2017-07-03T07:19:33.144Z,99.99
2017-07-03T07:20:42.358Z,99.99
2017-07-03T07:21:51.906Z,99.99
2017-07-03T07:23:01.273Z,99.99
2017-07-03T07:24:10.491Z,99.99
2017-07-03T07:25:19.710Z,99.99
2017-07-03T07:26:29.252Z,99.99
2017-07-03T07:27:38.792Z,99.99
2017-07-03T07:28:48.213Z,99.99
2017-07-03T07:29:57.756Z,99.99
2017-07-03T07:31:06.972Z,99.99
2017-07-03T07:32:15.869Z,99.99
2017-07-03T07:33:24.806Z,99.99
2017-07-03T07:34:33.793Z,99.99
2017-07-03T07:35:43.333Z,99.99
2017-07-03T07:36:52.560Z,99.99
2017-07-03T07:38:01.776Z,99.99
2017-07-03T07:39:11.318Z,99.99
2017-07-03T07:40:20.908Z,98.67
2017-07-03T07:41:29.798Z,99.24
2017-07-03T07:42:39.336Z,98.67
2017-07-03T07:43:48.880Z,98
2017-07-03T07:44:58.100Z,98.86
2017-07-03T07:46:07.041Z,98.38
2017-07-03T07:47:16.268Z,98.67
2017-07-03T07:48:25.819Z,99.91
2017-07-03T07:49:35.363Z,99.99
2017-07-03T07:50:44.583Z,97.14
2017-07-03T07:51:53.527Z,97.33
2017-07-03T07:53:02.421Z,95.03
2017-07-03T07:54:11.650Z,95.46
2017-07-03T07:55:21.196Z,94.89
2017-07-03T07:56:30.083Z,93.54
2017-07-03T07:57:38.982Z,93.44
2017-07-03T07:58:47.885Z,94.5
2017-07-03T07:59:56.781Z,94.59
2017-07-03T08:01:06.325Z,94.5
2017-07-03T08:02:15.214Z,95.26
2017-07-03T08:03:24.536Z,95.31
2017-07-03T08:04:34.084Z,93.88
2017-07-03T08:05:42.989Z,93.49
2017-07-03T08:06:52.212Z,93.59
2017-07-03T08:08:01.108Z,93.97
2017-07-03T08:09:11.179Z,93.01
2017-07-03T08:10:20.401Z,91.28
2017-07-03T08:11:29.308Z,91.28
2017-07-03T08:12:38.530Z,90.33
2017-07-03T08:13:47.754Z,90.9
2017-07-03T08:14:57.466Z,89.94
2017-07-03T08:16:06.681Z,90.42
2017-07-03T08:17:16.225Z,89.65
2017-07-03T08:18:25.767Z,90.23
2017-07-03T08:19:35.632Z,89.08
2017-07-03T08:20:45.431Z,89.37
2017-07-03T08:21:54.652Z,88.6
2017-07-03T08:23:03.870Z,89.37
2017-07-03T08:24:12.762Z,90.61
2017-07-03T08:25:22.629Z,90.33
2017-07-03T08:26:32.048Z,91
2017-07-03T08:27:40.943Z,91.38
2017-07-03T08:28:50.162Z,91.86
2017-07-03T08:29:59.052Z,91
2017-07-03T08:31:07.939Z,88.7
2017-07-03T08:32:16.982Z,88.65
2017-07-03T08:33:25.929Z,87.01
2017-07-03T08:34:35.800Z,87.11
2017-07-03T08:35:45.342Z,87.4
2017-07-03T08:36:54.231Z,87.49
2017-07-03T08:38:03.927Z,86.63
2017-07-03T08:39:13.479Z,86.72
2017-07-03T08:40:23.038Z,86.44
2017-07-03T08:41:31.930Z,85.48
2017-07-03T08:42:40.825Z,85.77
2017-07-03T08:43:50.145Z,85.96
2017-07-03T08:45:00.010Z,85.28
2017-07-03T08:46:09.228Z,85.58
2017-07-03T08:47:18.127Z,85.77
2017-07-03T08:48:27.675Z,85.77
2017-07-03T08:49:36.623Z,85
2017-07-03T08:50:46.173Z,85.28
2017-07-03T08:51:55.092Z,84.04
2017-07-03T08:53:04.328Z,84.42
2017-07-03T08:54:13.588Z,84.71
2017-07-03T08:55:23.873Z,84.47
2017-07-03T08:56:32.844Z,85.14
2017-07-03T08:57:42.115Z,85.04
2017-07-03T08:58:51.022Z,85.81
2017-07-03T09:00:00.576Z,86.29
2017-07-03T09:01:09.852Z,85.33
2017-07-03T09:02:19.079Z,84.66
2017-07-03T09:03:28.960Z,83.6
2017-07-03T09:04:38.513Z,84.85
2017-07-03T09:05:47.730Z,84.47
2017-07-03T09:06:57.150Z,83.8
2017-07-03T09:08:06.364Z,82.93
2017-07-03T09:09:15.583Z,81.97
2017-07-03T09:10:24.822Z,83.12
2017-07-03T09:11:33.718Z,82.64
2017-07-03T09:12:42.623Z,83.16
2017-07-03T09:13:52.499Z,81.3
2017-07-03T09:15:01.772Z,81.2
2017-07-03T09:16:10.990Z,80.82
2017-07-03T09:17:20.534Z,81.05
2017-07-03T09:18:30.656Z,82.1
2017-07-03T09:19:40.205Z,81.24
2017-07-03T09:20:50.075Z,82.01
2017-07-03T09:21:59.293Z,82.87
2017-07-03T09:23:08.508Z,81.63
2017-07-03T09:24:18.631Z,81.05
2017-07-03T09:25:27.848Z,80.86
2017-07-03T09:26:37.077Z,81.92
2017-07-03T09:27:45.971Z,81.53
2017-07-03T09:28:55.578Z,81.43
2017-07-03T09:30:05.176Z,80.19
2017-07-03T09:31:14.400Z,79.9
2017-07-03T09:32:23.293Z,80.04
2017-07-03T09:33:32.183Z,78.78
2017-07-03T09:34:42.060Z,78.45
2017-07-03T09:35:51.931Z,79.42
2017-07-03T09:37:01.157Z,79.17
2017-07-03T09:38:10.054Z,79.46
2017-07-03T09:39:19.275Z,78.11
2017-07-03T09:40:28.490Z,78.11
2017-07-03T09:41:37.581Z,77.83
2017-07-03T09:42:46.480Z,78.78
2017-07-03T09:43:56.029Z,78.5
2017-07-03T09:45:04.923Z,77.15
2017-07-03T09:46:13.819Z,75.9
2017-07-03T09:47:22.762Z,76.29
2017-07-03T09:48:31.985Z,76.57
2017-07-03T09:49:41.532Z,78.11
2017-07-03T09:50:50.753Z,76.86
2017-07-03T09:51:59.642Z,76.86
2017-07-03T09:53:08.786Z,77.44
2017-07-03T09:54:18.330Z,78.25
2017-07-03T09:55:27.548Z,78.53
2017-07-03T09:56:36.764Z,78.06
2017-07-03T09:57:45.983Z,76.9
2017-07-03T09:58:55.362Z,77.38
2017-07-03T10:00:04.904Z,77.58
2017-07-03T10:01:14.135Z,77.96
2017-07-03T10:02:23.031Z,75.02
2017-07-03T10:03:32.570Z,77.13
2017-07-03T10:04:41.517Z,75.4
2017-07-03T10:05:50.752Z,74.73
2017-07-03T10:06:59.645Z,75.02
2017-07-03T10:08:08.550Z,74.82
2017-07-03T10:09:17.450Z,75.4
2017-07-03T10:10:26.783Z,74.82
2017-07-03T10:11:35.674Z,74.92
2017-07-03T10:12:44.895Z,75.88
2017-07-03T10:13:54.113Z,74.05
2017-07-03T10:15:03.991Z,74.34
2017-07-03T10:16:13.284Z,74.05
2017-07-03T10:17:22.502Z,74.73
2017-07-03T10:18:31.726Z,74.76
2017-07-03T10:19:40.620Z,74.25
2017-07-03T10:20:50.166Z,74.25
2017-07-03T10:21:59.542Z,73.42
2017-07-03T10:23:08.756Z,73.51
2017-07-03T10:24:17.971Z,73.9
2017-07-03T10:25:27.515Z,72.74
2017-07-03T10:26:36.417Z,73.71
2017-07-03T10:27:45.737Z,74.67
2017-07-03T10:28:55.301Z,72.78
2017-07-03T10:30:04.519Z,71.53
2017-07-03T10:31:13.414Z,71.72
2017-07-03T10:32:22.310Z,70.95
2017-07-03T10:33:31.351Z,71.24
2017-07-03T10:34:40.248Z,71.04
2017-07-03T10:35:49.154Z,71.62
2017-07-03T10:36:58.377Z,71.53
2017-07-03T10:38:07.943Z,71.91
2017-07-03T10:39:18.214Z,70.47
2017-07-03T10:40:27.434Z,71.43
2017-07-03T10:41:36.329Z,71.24
2017-07-03T10:42:45.875Z,71.53
2017-07-03T10:43:54.774Z,70.56
2017-07-03T10:45:04.798Z,70.09
2017-07-03T10:46:13.691Z,69.7
2017-07-03T10:47:22.585Z,69.02
2017-07-03T10:48:31.806Z,68.54
2017-07-03T10:49:41.352Z,67.87
2017-07-03T10:50:50.822Z,66.94
2017-07-03T10:52:00.368Z,67.52
2017-07-03T10:53:09.588Z,66.27
2017-07-03T10:54:18.485Z,67.42
2017-07-03T10:55:28.357Z,66.52
2017-07-03T10:56:38.049Z,67.29
2017-07-03T10:57:47.277Z,66.94
2017-07-03T10:58:56.499Z,66.46
2017-07-03T11:00:05.393Z,67.03
2017-07-03T11:01:14.328Z,69.06
2017-07-03T11:02:23.649Z,69.25
2017-07-03T11:03:33.193Z,69.15
2017-07-03T11:04:42.503Z,67.23
2017-07-03T11:05:52.066Z,67.33
2017-07-03T11:07:01.632Z,67.71
2017-07-03T11:08:10.834Z,67.97
2017-07-03T11:09:20.060Z,69.12
2017-07-03T11:10:29.606Z,68.68
2017-07-03T11:11:38.505Z,69.25
2017-07-03T11:12:48.378Z,69.45
2017-07-03T11:13:58.412Z,68.38
2017-07-03T11:15:07.309Z,70.15
2017-07-03T11:16:16.527Z,66.59
2017-07-03T11:17:26.072Z,65.91
2017-07-03T11:18:34.967Z,67.07
2017-07-03T11:19:44.391Z,67.3
2017-07-03T11:20:53.611Z,65.95
2017-07-03T11:22:02.505Z,63.73
2017-07-03T11:23:11.403Z,63.92
2017-07-03T11:24:20.298Z,63.73
2017-07-03T11:25:30.172Z,64.4
2017-07-03T11:26:39.398Z,64.59
2017-07-03T11:27:48.615Z,64.59
2017-07-03T11:28:58.162Z,65.66
2017-07-03T11:30:07.740Z,66.33
2017-07-03T11:31:16.645Z,66.49
2017-07-03T11:32:25.542Z,66.49
2017-07-03T11:33:35.414Z,66.97
2017-07-03T11:34:44.966Z,67.4
2017-07-03T11:35:54.838Z,66.62
2017-07-03T11:37:04.062Z,66.62
2017-07-03T11:38:13.288Z,66.14
2017-07-03T11:39:22.508Z,67.68
2017-07-03T11:40:32.388Z,67.88
2017-07-03T11:41:41.614Z,67.78
2017-07-03T11:42:50.662Z,65.66
2017-07-03T11:43:59.559Z,65.66
2017-07-03T11:45:09.099Z,65.27
2017-07-03T11:46:18.319Z,64.79
2017-07-03T11:47:27.217Z,64.89
2017-07-03T11:48:36.639Z,65.75
2017-07-03T11:49:45.858Z,64.21
2017-07-03T11:50:55.081Z,63.54
2017-07-03T11:52:04.313Z,65.75
2017-07-03T11:53:13.605Z,63.67
2017-07-03T11:54:23.458Z,62.99
2017-07-03T11:55:33.005Z,62.7
2017-07-03T11:56:42.226Z,62.7
2017-07-03T11:57:51.445Z,62.89
2017-07-03T11:59:00.673Z,62.6
2017-07-03T12:00:09.773Z,62.25
2017-07-03T12:01:19.001Z,62.25
2017-07-03T12:02:27.900Z,61.96
2017-07-03T12:03:37.128Z,61.77
2017-07-03T12:04:46.352Z,61.57
2017-07-03T12:05:56.007Z,61.47
2017-07-03T12:07:04.907Z,61.41
2017-07-03T12:08:14.462Z,61.41
2017-07-03T12:09:23.362Z,61.8
2017-07-03T12:10:32.590Z,61.28
2017-07-03T12:11:42.440Z,61.19
2017-07-03T12:12:51.664Z,62.54
2017-07-03T12:14:00.563Z,62.44
2017-07-03T12:15:09.459Z,62.25
2017-07-03T12:16:18.691Z,62.05
2017-07-03T12:17:28.215Z,62.34
2017-07-03T12:18:37.443Z,62.44
2017-07-03T12:19:46.997Z,60.99
2017-07-03T12:20:56.550Z,59.35
2017-07-03T12:22:06.105Z,60.48
2017-07-03T12:23:15.107Z,61.25
2017-07-03T12:24:24.053Z,60.99
2017-07-03T12:25:33.613Z,61.86
2017-07-03T12:26:43.160Z,61.77
2017-07-03T12:27:53.038Z,61.12
2017-07-03T12:29:02.093Z,60.64
2017-07-03T12:30:11.323Z,58.8
2017-07-03T12:31:20.552Z,59
2017-07-03T12:32:30.427Z,58.7
2017-07-03T12:33:39.982Z,58.03
2017-07-03T12:34:50.018Z,57.09
2017-07-03T12:35:59.244Z,56.32
2017-07-03T12:37:08.797Z,54.68
2017-07-03T12:38:18.352Z,56.45
2017-07-03T12:39:27.583Z,58.67
2017-07-03T12:40:37.284Z,56.63
2017-07-03T12:41:46.512Z,55.7
2017-07-03T12:42:55.415Z,56.47
2017-07-03T12:44:04.642Z,55.11
2017-07-03T12:45:14.202Z,55.7
2017-07-03T12:46:23.735Z,55.6
2017-07-03T12:47:32.635Z,56.18
2017-07-03T12:48:41.869Z,55.41
2017-07-03T12:49:51.422Z,56.18
2017-07-03T12:51:00.975Z,54.08
2017-07-03T12:52:10.358Z,53.53
2017-07-03T12:53:19.589Z,52.63
2017-07-03T12:54:28.493Z,51.66
2017-07-03T12:55:37.726Z,52.63
2017-07-03T12:56:46.627Z,52.63
2017-07-03T12:57:55.856Z,52.34
2017-07-03T12:59:06.064Z,53.11
2017-07-03T13:00:15.620Z,52.36
2017-07-03T13:01:24.527Z,52.27
2017-07-03T13:02:33.444Z,52.56
2017-07-03T13:03:42.833Z,52.53
2017-07-03T13:04:52.716Z,52.08
2017-07-03T13:06:01.953Z,52.82
2017-07-03T13:07:10.857Z,52.73
2017-07-03T13:08:20.418Z,52.02
2017-07-03T13:09:29.471Z,52.22
2017-07-03T13:10:38.375Z,53.59
2017-07-03T13:11:47.929Z,51.95
2017-07-03T13:12:57.159Z,52.05
2017-07-03T13:14:06.066Z,52.05
2017-07-03T13:15:15.164Z,52.51
2017-07-03T13:16:24.393Z,53.67
2017-07-03T13:17:33.624Z,51.54
2017-07-03T13:18:42.854Z,51.28
2017-07-03T13:19:52.738Z,51.86
2017-07-03T13:21:02.392Z,51.88
2017-07-03T13:22:11.627Z,51.5
2017-07-03T13:23:20.541Z,53.59
2017-07-03T13:24:30.105Z,52.66
2017-07-03T13:25:39.340Z,51.4
2017-07-03T13:26:48.334Z,51.95
2017-07-03T13:27:57.567Z,51.88
2017-07-03T13:29:07.120Z,51.56
2017-07-03T13:30:16.672Z,50.7
2017-07-03T13:31:25.580Z,51.76
2017-07-03T13:32:34.633Z,51.76
2017-07-03T13:33:44.515Z,51.66
2017-07-03T13:34:53.754Z,50.79
2017-07-03T13:36:02.663Z,50.43
2017-07-03T13:37:11.583Z,50.82
2017-07-03T13:38:20.809Z,50.33
2017-07-03T13:39:30.695Z,50.72
2017-07-03T13:40:39.613Z,49.37
2017-07-03T13:41:48.542Z,48.39
2017-07-03T13:42:57.458Z,49.85
2017-07-03T13:44:06.461Z,49.56
2017-07-03T13:45:16.015Z,49.75
2017-07-03T13:46:25.249Z,49.56
2017-07-03T13:47:34.491Z,50.6
2017-07-03T13:48:43.726Z,50.02
2017-07-03T13:49:52.885Z,49.54
2017-07-03T13:51:02.132Z,50.82
2017-07-03T13:52:12.015Z,49.75
2017-07-03T13:53:21.250Z,49.46
2017-07-03T13:54:30.816Z,50.35
2017-07-03T13:55:40.516Z,49.58
2017-07-03T13:56:50.397Z,48.49
2017-07-03T13:57:59.313Z,48.03
2017-07-03T13:59:08.217Z,48.42
2017-07-03T14:00:17.786Z,48.71
2017-07-03T14:01:26.844Z,48.42
2017-07-03T14:02:35.755Z,48.71
2017-07-03T14:03:45.312Z,50.33
2017-07-03T14:04:54.585Z,49.17
2017-07-03T14:06:03.816Z,49.95
2017-07-03T14:07:13.248Z,49.37
2017-07-03T14:08:22.195Z,49.95
2017-07-03T14:09:31.490Z,48.79
2017-07-03T14:10:40.719Z,49.17
2017-07-03T14:11:49.618Z,49.37
2017-07-03T14:12:59.222Z,49.37
2017-07-03T14:14:08.130Z,49.95
2017-07-03T14:15:17.397Z,50.82
2017-07-03T14:16:26.953Z,51.68
2017-07-03T14:17:36.504Z,51.5
2017-07-03T14:18:46.155Z,51.66
2017-07-03T14:19:55.381Z,51.47
2017-07-03T14:21:04.606Z,51.18
2017-07-03T14:22:14.157Z,51.88
2017-07-03T14:23:23.062Z,50.72
2017-07-03T14:24:32.290Z,50.82
2017-07-03T14:25:41.195Z,51.66
2017-07-03T14:26:50.426Z,51.56
2017-07-03T14:27:59.656Z,51.68
2017-07-03T14:29:09.535Z,50.5
2017-07-03T14:30:19.412Z,51.37
2017-07-03T14:31:28.314Z,51.08
2017-07-03T14:32:37.536Z,51.28
2017-07-03T14:33:46.765Z,51.56
2017-07-03T14:34:55.670Z,51.93
2017-07-03T14:36:04.944Z,52.61
2017-07-03T14:37:14.174Z,53.47
2017-07-03T14:38:23.094Z,53.09
2017-07-03T14:39:32.321Z,53.77
2017-07-03T14:40:41.546Z,53.96
2017-07-03T14:41:51.166Z,53.28
2017-07-03T14:43:00.062Z,53.45
2017-07-03T14:44:09.293Z,53.93
2017-07-03T14:45:18.843Z,53.55
2017-07-03T14:46:27.750Z,54.49
2017-07-03T14:47:36.951Z,54.29
2017-07-03T14:48:46.180Z,55.45
2017-07-03T14:49:56.060Z,55.55
2017-07-03T14:51:04.956Z,55.45
2017-07-03T14:52:13.858Z,55.71
2017-07-03T14:53:23.420Z,56.13
2017-07-03T14:54:33.293Z,54.97